Flight Track Log - Related Links

Times and Time Zones

All times are in EDT time to prevent confusion due to time zone crossing. See the EJA904 flight status page for this flight to view local times or setup timezone preferences in your user account.

Time Position Orientation Groundspeed Altitude Reporting Facility
EDT Latitude Longitude Course Direction KTS MPH feet Rate Location/Type
Thu 04:45:26 PM 33.3486 -79.2822 19° North 254 292 5,600  Level Jacksonville Center
Thu 04:46:26 PM 33.4228 -79.2519 19° North 260 299 8,900 3,000 Climbing Jacksonville Center
Thu 04:47:26 PM 33.5097 -79.2233 15° North 280 322 11,600 2,600 Climbing Jacksonville Center
Thu 04:48:26 PM 33.6136 -79.2042 North 328 377 14,100 2,450 Climbing Jacksonville Center
Thu 04:49:26 PM 33.7194 -79.1872 North 362 417 16,500 2,300 Climbing Jacksonville Center
Thu 04:50:26 PM 33.8397 -79.1644 North 401 461 18,700 2,200 Climbing Jacksonville Center
Thu 04:51:26 PM 33.9622 -79.1444 North 429 494 20,900 2,200 Climbing Jacksonville Center
Thu 04:52:26 PM 34.0847 -79.1217 North 443 510 23,100 2,083 Climbing Jacksonville Center
Thu 04:53:27 PM 34.2153 -79.0983 North 456 525 25,100 1,418 Climbing Jacksonville Center
Thu 04:55:11 PM 34.4325 -79.0567 North 486 559 27,000 1,304 Climbing Washington Center
Thu 04:56:08 PM 34.5714 -79.0122 15° North 503 579 28,600 1,795 Climbing Washington Center
Thu 04:57:08 PM 34.7128 -78.9575 18° North 514 592 30,500 1,884 Climbing Washington Center
Thu 04:58:09 PM 34.8519 -78.9050 17° North 520 598 32,400 1,230 Climbing Washington Center
Thu 04:59:10 PM 34.9956 -78.8500 17° North 526 605 33,000 303 Climbing Washington Center
Thu 05:00:08 PM 35.1367 -78.7947 18° North 526 605 33,000  Level Washington Center
Thu 05:01:09 PM 35.2800 -78.7394 17° North 526 605 33,000  Level Washington Center
Thu 05:02:10 PM 35.4444 -78.6744 18° North 542 624 33,000  Level Washington Center
Thu 05:03:10 PM 35.5942 -78.6139 18° North 555 639 33,000  Level Washington Center
Thu 05:04:09 PM 35.7481 -78.5556 17° North 565 650 33,000  Level Washington Center
Thu 05:05:09 PM 35.8975 -78.4972 18° North 565 650 33,000 -248 Level Washington Center
Thu 05:06:10 PM 36.0450 -78.4383 18° North 565 650 32,500 -1,714 Descending Washington Center
Thu 05:07:08 PM 36.1883 -78.3817 18° North 560 644 29,600 -2,269 Descending Washington Center
Thu 05:08:09 PM 36.3294 -78.3222 19° North 539 620 28,000 -787 Descending Washington Center
Thu 05:09:10 PM 36.4725 -78.2653 18° North 539 620 28,000  Level Washington Center
Thu 05:10:10 PM 36.6158 -78.2081 18° North 539 620 28,000 -153 Level Washington Center
Thu 05:11:08 PM 36.7569 -78.1456 20° North 534 615 27,700 -508 Descending Washington Center
Thu 05:12:08 PM 36.8981 -78.0747 22° Northeast 534 615 27,000 -347 Descending Washington Center
Thu 05:13:09 PM 37.0392 -78.0092 20° North 534 615 27,000 -148 Level Washington Center
Thu 05:14:10 PM 37.1783 -77.9406 21° North 534 615 26,700 -1,438 Descending Washington Center
Thu 05:15:10 PM 37.3153 -77.8742 21° North 534 615 24,100 -2,390 Descending Washington Center
Thu 05:16:08 PM 37.4436 -77.8100 22° Northeast 512 589 22,000 -1,059 Descending Washington Center
Thu 05:17:09 PM 37.5678 -77.7508 21° North 496 571 22,000 -992 Level Washington Center
Thu 05:18:09 PM 37.6919 -77.6886 22° Northeast 484 557 20,000 -2,218 Descending Washington Center
Thu 05:19:08 PM 37.8097 -77.6289 22° Northeast 472 543 17,600 -2,370 Descending Washington Center
Thu 05:20:08 PM 37.9233 -77.5739 21° North 458 527 15,300 -2,132 Descending Washington Center
Thu 05:21:09 PM 38.0264 -77.5239 21° North 428 493 13,300 -1,835 Descending Washington Center
Thu 05:22:09 PM 38.1125 -77.4761 24° Northeast 352 405 11,600 -1,600 Descending Washington Center
Thu 05:23:09 PM 38.1883 -77.4358 23° Northeast 294 338 10,100 -793 Descending Washington Center
Thu 05:24:10 PM 38.2617 -77.4111 15° North 280 322 10,000 -605 Descending Washington Center
Thu 05:25:08 PM 38.3364 -77.4394 343° North 266 306 8,900 -1,261 Descending Washington Center
Thu 05:26:09 PM 38.4089 -77.4650 345° North 266 306 7,500 -942 Descending Washington Center
Thu 05:27:09 PM 38.4819 -77.4614 North 266 306 7,000 -248 Descending Washington Center
Thu 05:28:10 PM 38.5569 -77.4633 359° North 266 306 7,000 -706 Level Washington Center
Thu 05:29:08 PM 38.6300 -77.4625 North 266 306 5,600 -1,731 Descending Washington Center
Thu 05:29:54 PM 38.6833 -77.4667 357° North 264 304 4,000 -1,019 Descending Potomac TRACON
Thu 05:30:54 PM 38.7667 -77.4667 360° North 242 278 3,800 -694 Descending Potomac TRACON
Thu 05:31:55 PM 38.8333 -77.4667 360° North 234 269 2,600 -1,140 Descending Potomac TRACON
Thu 05:32:55 PM 38.8833 -77.4667 360° North 175 201 1,500 -857 Descending Potomac TRACON
Thu 05:34:01 PM 38.9167 -77.4667 360° North 132 152 800 -636 Descending Potomac TRACON
Thu 05:36:00 PM 38.9474 -77.4599 North  Level Estimated
Thu 05:43:00 PM 38.9474 -77.4599 195° South  Level Estimated

Login

Don't have an account? Register now (free) for customized features, flight alerts, and more!